sensor_id;sensor_type;location;lat;lon;timestamp;temperature;humidity
38910;DHT22;24676;51.360;12.354;2023-02-11T00:02:20;2.30;99.90
38910;DHT22;24676;51.360;12.354;2023-02-11T00:05:05;2.30;99.90
38910;DHT22;24676;51.360;12.354;2023-02-11T00:07:49;2.40;99.90
38910;DHT22;24676;51.360;12.354;2023-02-11T00:10:33;2.40;99.90
38910;DHT22;24676;51.360;12.354;2023-02-11T00:13:18;2.50;99.90
38910;DHT22;24676;51.360;12.354;2023-02-11T00:16:11;2.50;99.90
38910;DHT22;24676;51.360;12.354;2023-02-11T00:18:58;2.40;99.90
38910;DHT22;24676;51.360;12.354;2023-02-11T00:21:43;2.40;99.90
38910;DHT22;24676;51.360;12.354;2023-02-11T00:24:27;2.40;99.90
38910;DHT22;24676;51.360;12.354;2023-02-11T00:27:12;2.40;99.90
38910;DHT22;24676;51.360;12.354;2023-02-11T00:29:58;2.30;99.90
38910;DHT22;24676;51.360;12.354;2023-02-11T00:32:44;2.30;99.90
38910;DHT22;24676;51.360;12.354;2023-02-11T00:35:29;2.30;99.90
38910;DHT22;24676;51.360;12.354;2023-02-11T00:38:13;2.30;99.90
38910;DHT22;24676;51.360;12.354;2023-02-11T00:40:57;2.20;99.90
38910;DHT22;24676;51.360;12.354;2023-02-11T00:43:42;2.30;99.90
38910;DHT22;24676;51.360;12.354;2023-02-11T00:46:26;2.20;99.90
38910;DHT22;24676;51.360;12.354;2023-02-11T00:49:10;2.20;99.90
38910;DHT22;24676;51.360;12.354;2023-02-11T00:51:55;2.20;99.90
38910;DHT22;24676;51.360;12.354;2023-02-11T00:54:39;2.20;99.90
38910;DHT22;24676;51.360;12.354;2023-02-11T00:57:24;2.20;99.90
38910;DHT22;24676;51.360;12.354;2023-02-11T01:00:10;2.20;99.90
38910;DHT22;24676;51.360;12.354;2023-02-11T01:02:55;2.20;99.90
38910;DHT22;24676;51.360;12.354;2023-02-11T01:05:40;2.20;99.90
38910;DHT22;24676;51.360;12.354;2023-02-11T01:08:24;2.20;99.90
38910;DHT22;24676;51.360;12.354;2023-02-11T01:11:15;2.20;99.90
38910;DHT22;24676;51.360;12.354;2023-02-11T01:13:59;2.20;99.90
38910;DHT22;24676;51.360;12.354;2023-02-11T01:16:44;2.10;99.90
38910;DHT22;24676;51.360;12.354;2023-02-11T01:19:28;2.20;99.90
38910;DHT22;24676;51.360;12.354;2023-02-11T01:22:12;2.10;99.90
38910;DHT22;24676;51.360;12.354;2023-02-11T01:24:57;2.20;99.90
38910;DHT22;24676;51.360;12.354;2023-02-11T01:27:42;2.20;99.90
38910;DHT22;24676;51.360;12.354;2023-02-11T01:30:26;2.30;99.90
38910;DHT22;24676;51.360;12.354;2023-02-11T01:33:10;2.30;99.90
38910;DHT22;24676;51.360;12.354;2023-02-11T01:35:54;2.40;99.90
38910;DHT22;24676;51.360;12.354;2023-02-11T01:38:38;2.50;99.90
38910;DHT22;24676;51.360;12.354;2023-02-11T01:41:24;2.60;99.90
38910;DHT22;24676;51.360;12.354;2023-02-11T01:47:10;2.60;99.90
38910;DHT22;24676;51.360;12.354;2023-02-11T01:49:57;2.70;99.90
38910;DHT22;24676;51.360;12.354;2023-02-11T01:52:42;2.80;99.90
38910;DHT22;24676;51.360;12.354;2023-02-11T01:55:29;2.80;99.90
38910;DHT22;24676;51.360;12.354;2023-02-11T01:58:33;2.80;99.90
38910;DHT22;24676;51.360;12.354;2023-02-11T02:01:23;2.90;99.90
38910;DHT22;24676;51.360;12.354;2023-02-11T02:04:09;3.00;99.90
38910;DHT22;24676;51.360;12.354;2023-02-11T02:07:24;3.10;99.90
38910;DHT22;24676;51.360;12.354;2023-02-11T02:10:16;3.20;99.90
38910;DHT22;24676;51.360;12.354;2023-02-11T02:13:02;3.20;99.90
38910;DHT22;24676;51.360;12.354;2023-02-11T02:15:51;3.30;99.90
38910;DHT22;24676;51.360;12.354;2023-02-11T02:25:19;3.40;99.90
38910;DHT22;24676;51.360;12.354;2023-02-11T02:37:26;3.40;99.90
38910;DHT22;24676;51.360;12.354;2023-02-11T02:40:35;3.40;99.90
38910;DHT22;24676;51.360;12.354;2023-02-11T02:43:25;3.40;99.90
38910;DHT22;24676;51.360;12.354;2023-02-11T02:46:17;3.50;99.90
38910;DHT22;24676;51.360;12.354;2023-02-11T02:49:01;3.50;99.90
38910;DHT22;24676;51.360;12.354;2023-02-11T02:52:07;3.50;99.90
38910;DHT22;24676;51.360;12.354;2023-02-11T03:01:46;3.60;99.90
38910;DHT22;24676;51.360;12.354;2023-02-11T03:04:48;3.60;99.90
38910;DHT22;24676;51.360;12.354;2023-02-11T03:07:56;3.60;99.90
38910;DHT22;24676;51.360;12.354;2023-02-11T03:10:47;3.60;99.90
38910;DHT22;24676;51.360;12.354;2023-02-11T03:13:34;3.60;99.90
38910;DHT22;24676;51.360;12.354;2023-02-11T03:16:25;3.60;99.90
38910;DHT22;24676;51.360;12.354;2023-02-11T03:19:14;3.60;99.90
38910;DHT22;24676;51.360;12.354;2023-02-11T03:22:02;3.60;99.90
38910;DHT22;24676;51.360;12.354;2023-02-11T03:24:48;3.60;99.90
38910;DHT22;24676;51.360;12.354;2023-02-11T03:27:46;3.60;99.90
38910;DHT22;24676;51.360;12.354;2023-02-11T03:36:40;3.60;99.90
38910;DHT22;24676;51.360;12.354;2023-02-11T03:39:42;3.60;99.90
38910;DHT22;24676;51.360;12.354;2023-02-11T03:42:34;3.70;99.90
38910;DHT22;24676;51.360;12.354;2023-02-11T03:45:21;3.70;99.90
38910;DHT22;24676;51.360;12.354;2023-02-11T03:48:24;3.70;99.90
38910;DHT22;24676;51.360;12.354;2023-02-11T03:51:10;3.80;99.90
38910;DHT22;24676;51.360;12.354;2023-02-11T03:53:57;3.80;99.90
38910;DHT22;24676;51.360;12.354;2023-02-11T03:56:52;3.80;99.90
38910;DHT22;24676;51.360;12.354;2023-02-11T03:59:57;3.80;99.90
38910;DHT22;24676;51.360;12.354;2023-02-11T04:02:42;3.80;99.90
38910;DHT22;24676;51.360;12.354;2023-02-11T04:05:26;3.90;99.90
38910;DHT22;24676;51.360;12.354;2023-02-11T04:08:10;3.90;99.90
38910;DHT22;24676;51.360;12.354;2023-02-11T04:10:55;3.90;99.90
38910;DHT22;24676;51.360;12.354;2023-02-11T04:13:39;3.90;99.90
38910;DHT22;24676;51.360;12.354;2023-02-11T04:16:23;3.90;99.90
38910;DHT22;24676;51.360;12.354;2023-02-11T04:19:07;3.90;99.90
38910;DHT22;24676;51.360;12.354;2023-02-11T04:21:51;4.00;99.90
38910;DHT22;24676;51.360;12.354;2023-02-11T04:24:35;4.00;99.90
38910;DHT22;24676;51.360;12.354;2023-02-11T04:27:20;4.00;99.90
38910;DHT22;24676;51.360;12.354;2023-02-11T04:30:05;4.00;99.90
38910;DHT22;24676;51.360;12.354;2023-02-11T04:32:50;4.00;99.90
38910;DHT22;24676;51.360;12.354;2023-02-11T04:35:34;4.10;99.90
38910;DHT22;24676;51.360;12.354;2023-02-11T04:38:18;4.10;99.90
38910;DHT22;24676;51.360;12.354;2023-02-11T04:41:02;4.10;99.90
38910;DHT22;24676;51.360;12.354;2023-02-11T04:43:46;4.10;99.90
38910;DHT22;24676;51.360;12.354;2023-02-11T04:46:31;4.10;99.90
38910;DHT22;24676;51.360;12.354;2023-02-11T04:49:15;4.10;99.90
38910;DHT22;24676;51.360;12.354;2023-02-11T04:52:00;4.10;99.90
38910;DHT22;24676;51.360;12.354;2023-02-11T04:54:44;4.10;99.90
38910;DHT22;24676;51.360;12.354;2023-02-11T04:57:28;4.20;99.90
38910;DHT22;24676;51.360;12.354;2023-02-11T05:00:13;4.20;99.90
38910;DHT22;24676;51.360;12.354;2023-02-11T05:02:57;4.20;99.90
38910;DHT22;24676;51.360;12.354;2023-02-11T05:05:42;4.20;99.90
38910;DHT22;24676;51.360;12.354;2023-02-11T05:08:26;4.20;99.90
38910;DHT22;24676;51.360;12.354;2023-02-11T05:11:16;4.10;99.90
38910;DHT22;24676;51.360;12.354;2023-02-11T05:14:01;4.10;99.90
38910;DHT22;24676;51.360;12.354;2023-02-11T05:16:45;4.20;99.90
38910;DHT22;24676;51.360;12.354;2023-02-11T05:19:29;4.10;99.90
38910;DHT22;24676;51.360;12.354;2023-02-11T05:22:15;4.10;99.90
38910;DHT22;24676;51.360;12.354;2023-02-11T05:24:59;4.10;99.90
38910;DHT22;24676;51.360;12.354;2023-02-11T05:27:43;4.10;99.90
38910;DHT22;24676;51.360;12.354;2023-02-11T05:30:27;4.10;99.90
38910;DHT22;24676;51.360;12.354;2023-02-11T05:33:11;4.10;99.90
38910;DHT22;24676;51.360;12.354;2023-02-11T05:35:59;4.10;99.90
38910;DHT22;24676;51.360;12.354;2023-02-11T05:38:43;4.10;99.90
38910;DHT22;24676;51.360;12.354;2023-02-11T05:41:28;4.10;99.90
38910;DHT22;24676;51.360;12.354;2023-02-11T05:44:12;4.10;99.90
38910;DHT22;24676;51.360;12.354;2023-02-11T05:46:56;4.10;99.90
38910;DHT22;24676;51.360;12.354;2023-02-11T05:49:40;4.10;99.90
38910;DHT22;24676;51.360;12.354;2023-02-11T05:52:24;4.10;99.90
38910;DHT22;24676;51.360;12.354;2023-02-11T05:55:09;4.10;99.90
38910;DHT22;24676;51.360;12.354;2023-02-11T05:57:53;4.20;99.90
38910;DHT22;24676;51.360;12.354;2023-02-11T06:00:37;4.20;99.90
38910;DHT22;24676;51.360;12.354;2023-02-11T06:03:21;4.30;99.90
38910;DHT22;24676;51.360;12.354;2023-02-11T06:06:11;4.30;99.90
38910;DHT22;24676;51.360;12.354;2023-02-11T06:08:56;4.30;99.90
38910;DHT22;24676;51.360;12.354;2023-02-11T06:11:40;4.30;99.90
38910;DHT22;24676;51.360;12.354;2023-02-11T06:14:24;4.40;99.90
38910;DHT22;24676;51.360;12.354;2023-02-11T06:17:08;4.30;99.90
38910;DHT22;24676;51.360;12.354;2023-02-11T06:19:53;4.40;99.90
38910;DHT22;24676;51.360;12.354;2023-02-11T06:22:37;4.40;99.90
38910;DHT22;24676;51.360;12.354;2023-02-11T06:25:21;4.50;99.90
38910;DHT22;24676;51.360;12.354;2023-02-11T06:28:06;4.50;99.90
38910;DHT22;24676;51.360;12.354;2023-02-11T06:30:50;4.50;99.90
38910;DHT22;24676;51.360;12.354;2023-02-11T06:33:34;4.40;99.90
38910;DHT22;24676;51.360;12.354;2023-02-11T06:36:20;4.50;99.90
38910;DHT22;24676;51.360;12.354;2023-02-11T06:39:05;4.50;99.90
38910;DHT22;24676;51.360;12.354;2023-02-11T06:41:49;4.40;99.90
38910;DHT22;24676;51.360;12.354;2023-02-11T06:44:34;4.50;99.90
38910;DHT22;24676;51.360;12.354;2023-02-11T06:47:18;4.50;99.90
38910;DHT22;24676;51.360;12.354;2023-02-11T06:50:02;4.50;99.90
38910;DHT22;24676;51.360;12.354;2023-02-11T06:52:46;4.50;99.90
38910;DHT22;24676;51.360;12.354;2023-02-11T06:55:31;4.50;99.90
38910;DHT22;24676;51.360;12.354;2023-02-11T06:58:17;4.50;99.90
38910;DHT22;24676;51.360;12.354;2023-02-11T07:01:13;4.60;99.90
38910;DHT22;24676;51.360;12.354;2023-02-11T07:03:58;4.60;99.90
38910;DHT22;24676;51.360;12.354;2023-02-11T07:06:42;4.60;99.90
38910;DHT22;24676;51.360;12.354;2023-02-11T07:09:26;4.60;99.90
38910;DHT22;24676;51.360;12.354;2023-02-11T07:12:10;4.60;99.90
38910;DHT22;24676;51.360;12.354;2023-02-11T07:14:55;4.60;99.90
38910;DHT22;24676;51.360;12.354;2023-02-11T07:17:40;4.60;99.90
38910;DHT22;24676;51.360;12.354;2023-02-11T07:20:25;4.60;99.90
38910;DHT22;24676;51.360;12.354;2023-02-11T07:23:09;4.70;99.90
38910;DHT22;24676;51.360;12.354;2023-02-11T07:25:53;4.70;99.90
38910;DHT22;24676;51.360;12.354;2023-02-11T07:28:40;4.90;99.90
38910;DHT22;24676;51.360;12.354;2023-02-11T07:31:26;5.00;99.90
38910;DHT22;24676;51.360;12.354;2023-02-11T07:34:11;5.20;99.90
38910;DHT22;24676;51.360;12.354;2023-02-11T07:36:55;5.20;99.90
38910;DHT22;24676;51.360;12.354;2023-02-11T07:39:40;5.20;99.90
38910;DHT22;24676;51.360;12.354;2023-02-11T07:42:24;5.20;99.90
38910;DHT22;24676;51.360;12.354;2023-02-11T07:45:08;5.20;99.90
38910;DHT22;24676;51.360;12.354;2023-02-11T07:47:52;5.20;99.90
38910;DHT22;24676;51.360;12.354;2023-02-11T07:50:37;5.20;99.90
38910;DHT22;24676;51.360;12.354;2023-02-11T07:53:21;5.30;99.90
38910;DHT22;24676;51.360;12.354;2023-02-11T07:56:07;5.40;99.90
38910;DHT22;24676;51.360;12.354;2023-02-11T07:58:51;5.50;99.90
38910;DHT22;24676;51.360;12.354;2023-02-11T08:01:36;5.50;99.90
38910;DHT22;24676;51.360;12.354;2023-02-11T08:04:20;5.50;99.90
38910;DHT22;24676;51.360;12.354;2023-02-11T08:07:04;5.70;99.90
38910;DHT22;24676;51.360;12.354;2023-02-11T08:09:49;5.70;99.90
38910;DHT22;24676;51.360;12.354;2023-02-11T08:12:34;5.60;99.90
38910;DHT22;24676;51.360;12.354;2023-02-11T08:15:18;5.50;99.90
38910;DHT22;24676;51.360;12.354;2023-02-11T08:18:02;5.50;99.90
38910;DHT22;24676;51.360;12.354;2023-02-11T08:20:47;5.40;99.90
38910;DHT22;24676;51.360;12.354;2023-02-11T08:23:31;5.50;99.90
38910;DHT22;24676;51.360;12.354;2023-02-11T08:26:18;5.40;99.90
38910;DHT22;24676;51.360;12.354;2023-02-11T08:29:11;5.50;99.90
38910;DHT22;24676;51.360;12.354;2023-02-11T08:31:55;5.50;99.90
38910;DHT22;24676;51.360;12.354;2023-02-11T08:34:39;5.50;99.90
38910;DHT22;24676;51.360;12.354;2023-02-11T08:37:23;5.50;99.90
38910;DHT22;24676;51.360;12.354;2023-02-11T08:40:08;5.50;99.90
38910;DHT22;24676;51.360;12.354;2023-02-11T08:42:52;5.50;99.90
38910;DHT22;24676;51.360;12.354;2023-02-11T08:45:37;5.60;99.90
38910;DHT22;24676;51.360;12.354;2023-02-11T08:48:21;5.60;99.90
38910;DHT22;24676;51.360;12.354;2023-02-11T08:51:15;5.70;99.90
38910;DHT22;24676;51.360;12.354;2023-02-11T08:53:59;5.80;99.90
38910;DHT22;24676;51.360;12.354;2023-02-11T08:56:44;5.90;99.90
38910;DHT22;24676;51.360;12.354;2023-02-11T08:59:32;5.90;99.90
38910;DHT22;24676;51.360;12.354;2023-02-11T09:02:16;5.90;99.90
38910;DHT22;24676;51.360;12.354;2023-02-11T09:05:00;5.90;99.90
38910;DHT22;24676;51.360;12.354;2023-02-11T09:07:44;5.90;99.90
38910;DHT22;24676;51.360;12.354;2023-02-11T09:10:29;6.00;99.90
38910;DHT22;24676;51.360;12.354;2023-02-11T09:13:13;6.10;99.90
38910;DHT22;24676;51.360;12.354;2023-02-11T09:15:58;6.10;99.90
38910;DHT22;24676;51.360;12.354;2023-02-11T09:18:43;6.10;99.90
38910;DHT22;24676;51.360;12.354;2023-02-11T09:21:29;6.10;99.90
38910;DHT22;24676;51.360;12.354;2023-02-11T09:24:14;6.10;99.90
38910;DHT22;24676;51.360;12.354;2023-02-11T09:26:58;6.10;99.90
38910;DHT22;24676;51.360;12.354;2023-02-11T09:29:42;6.20;99.90
38910;DHT22;24676;51.360;12.354;2023-02-11T09:32:27;6.20;99.90
38910;DHT22;24676;51.360;12.354;2023-02-11T09:35:11;6.20;99.90
38910;DHT22;24676;51.360;12.354;2023-02-11T09:37:55;6.20;99.90
38910;DHT22;24676;51.360;12.354;2023-02-11T09:40:43;6.20;99.90
38910;DHT22;24676;51.360;12.354;2023-02-11T09:43:40;6.30;99.90
38910;DHT22;24676;51.360;12.354;2023-02-11T09:46:31;6.30;99.90
38910;DHT22;24676;51.360;12.354;2023-02-11T09:49:21;6.40;99.90
38910;DHT22;24676;51.360;12.354;2023-02-11T09:55:02;6.70;99.90
38910;DHT22;24676;51.360;12.354;2023-02-11T09:57:47;6.80;99.90
38910;DHT22;24676;51.360;12.354;2023-02-11T10:07:56;7.00;99.90
38910;DHT22;24676;51.360;12.354;2023-02-11T10:10:59;7.00;99.90
38910;DHT22;24676;51.360;12.354;2023-02-11T10:16:42;7.00;99.90
38910;DHT22;24676;51.360;12.354;2023-02-11T10:19:41;7.00;99.90
38910;DHT22;24676;51.360;12.354;2023-02-11T10:22:54;7.00;99.90
38910;DHT22;24676;51.360;12.354;2023-02-11T10:25:41;7.10;99.90
38910;DHT22;24676;51.360;12.354;2023-02-11T10:28:32;7.20;99.90
38910;DHT22;24676;51.360;12.354;2023-02-11T10:31:20;7.10;99.90
38910;DHT22;24676;51.360;12.354;2023-02-11T10:34:09;7.10;99.90
38910;DHT22;24676;51.360;12.354;2023-02-11T10:36:53;7.20;99.90
38910;DHT22;24676;51.360;12.354;2023-02-11T10:39:39;7.20;99.90
38910;DHT22;24676;51.360;12.354;2023-02-11T10:42:24;7.20;99.90
38910;DHT22;24676;51.360;12.354;2023-02-11T10:45:38;7.20;99.90
38910;DHT22;24676;51.360;12.354;2023-02-11T10:48:51;7.20;99.90
38910;DHT22;24676;51.360;12.354;2023-02-11T10:51:36;7.20;99.90
38910;DHT22;24676;51.360;12.354;2023-02-11T10:54:20;7.20;99.90
38910;DHT22;24676;51.360;12.354;2023-02-11T10:57:17;7.20;99.90
38910;DHT22;24676;51.360;12.354;2023-02-11T11:00:34;7.20;99.90
38910;DHT22;24676;51.360;12.354;2023-02-11T11:03:25;7.20;99.90
38910;DHT22;24676;51.360;12.354;2023-02-11T11:06:10;7.20;99.90
38910;DHT22;24676;51.360;12.354;2023-02-11T11:08:54;7.10;99.90
38910;DHT22;24676;51.360;12.354;2023-02-11T11:11:50;7.10;99.90
38910;DHT22;24676;51.360;12.354;2023-02-11T11:14:35;7.10;99.90
38910;DHT22;24676;51.360;12.354;2023-02-11T11:17:19;7.10;99.90
38910;DHT22;24676;51.360;12.354;2023-02-11T11:23:19;7.10;99.90
38910;DHT22;24676;51.360;12.354;2023-02-11T11:26:11;7.10;99.90
38910;DHT22;24676;51.360;12.354;2023-02-11T11:29:08;7.10;99.90
38910;DHT22;24676;51.360;12.354;2023-02-11T11:31:56;7.00;99.90
38910;DHT22;24676;51.360;12.354;2023-02-11T11:34:47;7.10;99.90
38910;DHT22;24676;51.360;12.354;2023-02-11T11:37:34;7.20;99.90
38910;DHT22;24676;51.360;12.354;2023-02-11T11:40:27;7.20;99.90
38910;DHT22;24676;51.360;12.354;2023-02-11T11:45:58;7.30;99.90
38910;DHT22;24676;51.360;12.354;2023-02-11T11:48:46;7.40;99.90
38910;DHT22;24676;51.360;12.354;2023-02-11T11:51:32;7.40;99.90
38910;DHT22;24676;51.360;12.354;2023-02-11T11:54:19;7.40;99.90
38910;DHT22;24676;51.360;12.354;2023-02-11T11:57:12;7.30;99.90
38910;DHT22;24676;51.360;12.354;2023-02-11T11:59:57;7.40;99.90
38910;DHT22;24676;51.360;12.354;2023-02-11T12:12:02;7.30;99.90
38910;DHT22;24676;51.360;12.354;2023-02-11T12:21:17;7.30;99.90
38910;DHT22;24676;51.360;12.354;2023-02-11T12:39:31;7.30;99.90
38910;DHT22;24676;51.360;12.354;2023-02-11T12:55:12;7.20;99.90
38910;DHT22;24676;51.360;12.354;2023-02-11T12:58:00;7.10;99.90
38910;DHT22;24676;51.360;12.354;2023-02-11T13:00:49;7.10;99.90
38910;DHT22;24676;51.360;12.354;2023-02-11T13:03:43;7.10;99.90
38910;DHT22;24676;51.360;12.354;2023-02-11T13:06:43;7.20;99.90
38910;DHT22;24676;51.360;12.354;2023-02-11T13:09:33;7.20;99.90
38910;DHT22;24676;51.360;12.354;2023-02-11T13:12:18;7.10;99.90
38910;DHT22;24676;51.360;12.354;2023-02-11T13:15:23;7.10;99.90
38910;DHT22;24676;51.360;12.354;2023-02-11T13:27:29;7.10;99.90
38910;DHT22;24676;51.360;12.354;2023-02-11T13:30:32;7.00;99.90
38910;DHT22;24676;51.360;12.354;2023-02-11T13:33:20;7.00;99.90
38910;DHT22;24676;51.360;12.354;2023-02-11T13:36:18;7.00;99.90
38910;DHT22;24676;51.360;12.354;2023-02-11T13:39:04;7.00;99.90
38910;DHT22;24676;51.360;12.354;2023-02-11T13:41:49;7.00;99.90
38910;DHT22;24676;51.360;12.354;2023-02-11T13:44:34;7.00;99.90
38910;DHT22;24676;51.360;12.354;2023-02-11T13:47:30;7.00;99.90
38910;DHT22;24676;51.360;12.354;2023-02-11T13:50:22;7.00;99.90
38910;DHT22;24676;51.360;12.354;2023-02-11T13:53:07;7.00;99.90
38910;DHT22;24676;51.360;12.354;2023-02-11T13:56:04;7.00;99.90
38910;DHT22;24676;51.360;12.354;2023-02-11T14:05:32;7.00;99.90
38910;DHT22;24676;51.360;12.354;2023-02-11T14:08:35;7.00;99.90
38910;DHT22;24676;51.360;12.354;2023-02-11T14:11:42;7.00;99.90
38910;DHT22;24676;51.360;12.354;2023-02-11T14:14:31;7.00;99.90
38910;DHT22;24676;51.360;12.354;2023-02-11T14:17:17;7.00;99.90
38910;DHT22;24676;51.360;12.354;2023-02-11T14:20:03;7.00;99.90
38910;DHT22;24676;51.360;12.354;2023-02-11T14:23:20;7.00;99.90
38910;DHT22;24676;51.360;12.354;2023-02-11T14:31:59;7.00;99.90
38910;DHT22;24676;51.360;12.354;2023-02-11T14:34:58;7.00;99.90
38910;DHT22;24676;51.360;12.354;2023-02-11T14:41:06;7.00;99.90
38910;DHT22;24676;51.360;12.354;2023-02-11T14:43:58;7.00;99.90
38910;DHT22;24676;51.360;12.354;2023-02-11T14:46:48;7.00;99.90
38910;DHT22;24676;51.360;12.354;2023-02-11T14:49:36;7.00;99.90
38910;DHT22;24676;51.360;12.354;2023-02-11T14:52:26;7.00;99.90
38910;DHT22;24676;51.360;12.354;2023-02-11T14:55:30;7.00;99.90
38910;DHT22;24676;51.360;12.354;2023-02-11T14:58:27;7.00;99.90
38910;DHT22;24676;51.360;12.354;2023-02-11T15:01:31;7.00;99.90
38910;DHT22;24676;51.360;12.354;2023-02-11T15:04:29;7.20;99.90
38910;DHT22;24676;51.360;12.354;2023-02-11T15:07:14;7.30;99.90
38910;DHT22;24676;51.360;12.354;2023-02-11T15:09:59;7.30;99.90
38910;DHT22;24676;51.360;12.354;2023-02-11T15:12:44;7.30;99.90
38910;DHT22;24676;51.360;12.354;2023-02-11T15:15:32;7.30;99.90
38910;DHT22;24676;51.360;12.354;2023-02-11T15:18:22;7.30;99.90
38910;DHT22;24676;51.360;12.354;2023-02-11T15:21:07;7.30;99.90
38910;DHT22;24676;51.360;12.354;2023-02-11T15:24:02;7.30;99.90
38910;DHT22;24676;51.360;12.354;2023-02-11T15:26:57;7.30;99.90
38910;DHT22;24676;51.360;12.354;2023-02-11T15:29:48;7.30;99.90
38910;DHT22;24676;51.360;12.354;2023-02-11T15:32:33;7.20;99.90
38910;DHT22;24676;51.360;12.354;2023-02-11T15:35:19;7.20;99.90
38910;DHT22;24676;51.360;12.354;2023-02-11T15:38:04;7.20;99.90
38910;DHT22;24676;51.360;12.354;2023-02-11T15:41:00;7.20;99.90
38910;DHT22;24676;51.360;12.354;2023-02-11T15:43:48;7.20;99.90
38910;DHT22;24676;51.360;12.354;2023-02-11T15:46:37;7.20;99.90
38910;DHT22;24676;51.360;12.354;2023-02-11T15:49:23;7.20;99.90
38910;DHT22;24676;51.360;12.354;2023-02-11T15:52:09;7.20;99.90
38910;DHT22;24676;51.360;12.354;2023-02-11T15:54:55;7.20;99.90
38910;DHT22;24676;51.360;12.354;2023-02-11T15:57:50;7.20;99.90
38910;DHT22;24676;51.360;12.354;2023-02-11T16:00:44;7.20;99.90
38910;DHT22;24676;51.360;12.354;2023-02-11T16:03:28;7.20;99.90
38910;DHT22;24676;51.360;12.354;2023-02-11T16:06:24;7.30;99.90
38910;DHT22;24676;51.360;12.354;2023-02-11T16:11:56;7.20;99.90
38910;DHT22;24676;51.360;12.354;2023-02-11T16:14:41;7.20;99.90
38910;DHT22;24676;51.360;12.354;2023-02-11T16:17:29;7.20;99.90
38910;DHT22;24676;51.360;12.354;2023-02-11T16:20:18;7.20;99.90
38910;DHT22;24676;51.360;12.354;2023-02-11T16:23:03;7.10;99.90
38910;DHT22;24676;51.360;12.354;2023-02-11T16:25:52;7.20;99.90
38910;DHT22;24676;51.360;12.354;2023-02-11T16:28:38;7.30;99.90
38910;DHT22;24676;51.360;12.354;2023-02-11T16:31:32;7.40;99.90
38910;DHT22;24676;51.360;12.354;2023-02-11T16:34:24;7.40;99.90
38910;DHT22;24676;51.360;12.354;2023-02-11T16:37:09;7.40;99.90
38910;DHT22;24676;51.360;12.354;2023-02-11T16:39:56;7.40;99.90
38910;DHT22;24676;51.360;12.354;2023-02-11T16:42:41;7.40;99.90
38910;DHT22;24676;51.360;12.354;2023-02-11T16:45:25;7.30;99.90
38910;DHT22;24676;51.360;12.354;2023-02-11T16:48:13;7.30;99.90
38910;DHT22;24676;51.360;12.354;2023-02-11T16:50:58;7.30;99.90
38910;DHT22;24676;51.360;12.354;2023-02-11T16:53:42;7.20;99.90
38910;DHT22;24676;51.360;12.354;2023-02-11T16:56:27;7.20;99.90
38910;DHT22;24676;51.360;12.354;2023-02-11T16:59:11;7.20;99.90
38910;DHT22;24676;51.360;12.354;2023-02-11T17:01:56;7.20;99.90
38910;DHT22;24676;51.360;12.354;2023-02-11T17:04:40;7.20;99.90
38910;DHT22;24676;51.360;12.354;2023-02-11T17:07:26;7.10;99.90
38910;DHT22;24676;51.360;12.354;2023-02-11T17:10:28;7.10;99.90
38910;DHT22;24676;51.360;12.354;2023-02-11T17:13:16;7.10;99.90
38910;DHT22;24676;51.360;12.354;2023-02-11T17:16:00;7.10;99.90
38910;DHT22;24676;51.360;12.354;2023-02-11T17:18:44;7.10;99.90
38910;DHT22;24676;51.360;12.354;2023-02-11T17:21:29;7.20;99.90
38910;DHT22;24676;51.360;12.354;2023-02-11T17:24:15;7.20;99.90
38910;DHT22;24676;51.360;12.354;2023-02-11T17:26:59;7.10;99.90
38910;DHT22;24676;51.360;12.354;2023-02-11T17:29:43;7.10;99.90
38910;DHT22;24676;51.360;12.354;2023-02-11T17:32:27;7.10;99.90
38910;DHT22;24676;51.360;12.354;2023-02-11T17:35:11;7.10;99.90
38910;DHT22;24676;51.360;12.354;2023-02-11T17:37:56;7.10;99.90
38910;DHT22;24676;51.360;12.354;2023-02-11T17:40:41;7.10;99.90
38910;DHT22;24676;51.360;12.354;2023-02-11T17:43:26;7.10;99.90
38910;DHT22;24676;51.360;12.354;2023-02-11T17:46:10;7.10;99.90
38910;DHT22;24676;51.360;12.354;2023-02-11T17:48:57;7.00;99.90
38910;DHT22;24676;51.360;12.354;2023-02-11T17:51:42;7.00;99.90
38910;DHT22;24676;51.360;12.354;2023-02-11T17:54:26;6.90;99.90
38910;DHT22;24676;51.360;12.354;2023-02-11T17:57:11;6.90;99.90
38910;DHT22;24676;51.360;12.354;2023-02-11T17:59:56;6.90;99.90
38910;DHT22;24676;51.360;12.354;2023-02-11T18:02:40;6.90;99.90
38910;DHT22;24676;51.360;12.354;2023-02-11T18:05:24;6.80;99.90
38910;DHT22;24676;51.360;12.354;2023-02-11T18:08:10;6.70;99.90
38910;DHT22;24676;51.360;12.354;2023-02-11T18:10:54;6.70;99.90
38910;DHT22;24676;51.360;12.354;2023-02-11T18:13:39;6.60;99.90
38910;DHT22;24676;51.360;12.354;2023-02-11T18:16:23;6.60;99.90
38910;DHT22;24676;51.360;12.354;2023-02-11T18:19:10;6.50;99.90
38910;DHT22;24676;51.360;12.354;2023-02-11T18:21:56;6.50;99.90
38910;DHT22;24676;51.360;12.354;2023-02-11T18:24:40;6.40;99.90
38910;DHT22;24676;51.360;12.354;2023-02-11T18:27:24;6.40;99.90
38910;DHT22;24676;51.360;12.354;2023-02-11T18:30:14;6.30;99.90
38910;DHT22;24676;51.360;12.354;2023-02-11T18:32:59;6.30;99.90
38910;DHT22;24676;51.360;12.354;2023-02-11T18:35:43;6.30;99.90
38910;DHT22;24676;51.360;12.354;2023-02-11T18:38:29;6.30;99.90
38910;DHT22;24676;51.360;12.354;2023-02-11T18:41:13;6.20;99.90
38910;DHT22;24676;51.360;12.354;2023-02-11T18:43:57;6.20;99.90
38910;DHT22;24676;51.360;12.354;2023-02-11T18:46:44;6.20;99.90
38910;DHT22;24676;51.360;12.354;2023-02-11T18:49:28;6.10;99.90
38910;DHT22;24676;51.360;12.354;2023-02-11T18:52:12;6.10;99.90
38910;DHT22;24676;51.360;12.354;2023-02-11T18:54:56;6.00;99.90
38910;DHT22;24676;51.360;12.354;2023-02-11T18:57:41;6.00;99.90
38910;DHT22;24676;51.360;12.354;2023-02-11T19:00:26;6.00;99.90
38910;DHT22;24676;51.360;12.354;2023-02-11T19:03:10;6.00;99.90
38910;DHT22;24676;51.360;12.354;2023-02-11T19:05:54;6.00;99.90
38910;DHT22;24676;51.360;12.354;2023-02-11T19:08:39;5.90;99.90
38910;DHT22;24676;51.360;12.354;2023-02-11T19:11:24;6.00;99.90
38910;DHT22;24676;51.360;12.354;2023-02-11T19:14:31;6.00;99.90
38910;DHT22;24676;51.360;12.354;2023-02-11T19:17:17;6.00;99.90
38910;DHT22;24676;51.360;12.354;2023-02-11T19:20:00;6.00;99.90
38910;DHT22;24676;51.360;12.354;2023-02-11T19:22:45;6.00;99.90
38910;DHT22;24676;51.360;12.354;2023-02-11T19:25:29;6.00;99.90
38910;DHT22;24676;51.360;12.354;2023-02-11T19:28:14;6.00;99.90
38910;DHT22;24676;51.360;12.354;2023-02-11T19:31:07;6.00;99.90
38910;DHT22;24676;51.360;12.354;2023-02-11T19:33:51;6.10;99.90
38910;DHT22;24676;51.360;12.354;2023-02-11T19:36:36;6.10;99.90
38910;DHT22;24676;51.360;12.354;2023-02-11T19:39:20;6.10;99.90
38910;DHT22;24676;51.360;12.354;2023-02-11T19:42:07;6.10;99.90